Terminal Aerodrome Forecast
Issued by NWS Charleston, WV

Current Version | Previous Version | Graphics & Text | Print | Product List | Glossary On
Versions: 1 2 3 4 5 6 7 8 9 10 11 12 13 14 15 16 17 18 19 20 21 22 23 24 25 26 27 28 29 30
000
FTUS41 KRLX 241100
TAFHTS
TAF
KHTS 241124Z 2412/2512 00000KT 3SM BR SCT002
     FM241300 VRB03KT P6SM BKN015
      TEMPO 2413/2415 SCT020
     FM241500 11005KT P6SM BKN035
     FM242300 10004KT P6SM SCT050
     FM250500 13003KT 6SM BR SCT250
     FM250800 14003KT 2SM BR SCT250=

USA.gov is the U.S. government's official web portal to all federal, state and local government web resources and services.